Time;durP1;ratioP1;P1;durP2;ratioP2;P2;SDS_P1;SDS_P2;PMS_P1;PMS_P2;Temp;Humidity;BMP_temperature;BMP_pressure;BME280_temperature;BME280_humidity;BME280_pressure;Samples;Min_cycle;Max_cycle;Signal;HPM_P1;HPM_P2
2022/06/01 00:01:06;;;;;;;3.83;3.40;;;15.20;98.50;;;;;;6079098;23;20442;-82
2022/06/01 00:03:35;;;;;;;3.60;3.30;;;15.10;98.70;;;;;;6070752;23;20434;-82
2022/06/01 00:06:02;;;;;;;3.77;3.40;;;15.10;98.70;;;;;;6076555;23;20443;-82
2022/06/01 00:08:29;;;;;;;3.70;3.10;;;15.00;99.20;;;;;;6077802;23;20478;-82
2022/06/01 00:10:57;;;;;;;4.10;3.17;;;14.90;99.60;;;;;;6076405;23;20945;-82
2022/06/01 00:13:24;;;;;;;3.23;3.03;;;14.80;99.90;;;;;;6083861;23;20489;-82
2022/06/01 00:15:52;;;;;;;3.50;3.23;;;14.70;99.90;;;;;;6075440;23;20522;-82
2022/06/01 00:18:20;;;;;;;3.00;2.80;;;14.70;99.90;;;;;;6077679;23;20566;-82
2022/06/01 00:20:47;;;;;;;3.30;3.00;;;14.70;99.80;;;;;;6075984;23;20531;-82
2022/06/01 00:23:14;;;;;;;3.80;3.10;;;14.70;99.60;;;;;;6082866;23;20505;-82
2022/06/01 00:25:42;;;;;;;2.80;2.60;;;14.70;99.50;;;;;;6074443;23;20445;-82
2022/06/01 00:28:09;;;;;;;3.10;2.80;;;14.70;99.70;;;;;;6081003;23;20573;-83
2022/06/01 00:30:37;;;;;;;3.10;2.90;;;14.70;99.90;;;;;;6077678;23;20526;-81
2022/06/01 00:33:04;;;;;;;3.13;2.73;;;14.80;99.90;;;;;;6081773;23;20446;-81
2022/06/01 00:35:33;;;;;;;3.30;2.90;;;14.80;99.90;;;;;;6078168;23;20466;-82
2022/06/01 00:38:00;;;;;;;3.63;3.33;;;14.90;99.90;;;;;;6079072;23;20462;-82
2022/06/01 00:40:29;;;;;;;3.87;3.50;;;14.90;99.90;;;;;;6086566;23;20449;-81
2022/06/01 00:42:59;;;;;;;3.80;3.50;;;14.90;99.90;;;;;;6073800;23;20510;-83
2022/06/01 00:45:28;;;;;;;5.00;3.50;;;14.90;99.90;;;;;;6081991;23;20469;-81
2022/06/01 00:47:55;;;;;;;3.50;3.20;;;14.70;99.90;;;;;;6049996;23;20557;-81
2022/06/01 00:50:25;;;;;;;3.93;3.53;;;14.70;99.90;;;;;;6083756;23;20493;-82
2022/06/01 00:52:58;;;;;;;3.50;3.20;;;14.60;99.90;;;;;;6079877;23;20448;-81
2022/06/01 00:55:29;;;;;;;3.43;3.13;;;14.60;99.90;;;;;;6075456;23;20854;-82
2022/06/01 00:58:00;;;;;;;3.70;3.13;;;14.60;99.90;;;;;;6087563;23;20809;-81
2022/06/01 01:00:32;;;;;;;3.90;3.40;;;14.50;99.90;;;;;;6082908;23;20434;-81
2022/06/01 01:03:02;;;;;;;4.00;3.47;;;14.50;99.90;;;;;;6058359;23;20497;-81
2022/06/01 01:05:30;;;;;;;3.60;3.30;;;14.40;99.90;;;;;;6079785;23;20538;-81
2022/06/01 01:08:03;;;;;;;4.00;3.70;;;14.30;99.90;;;;;;6079216;23;20897;-81
2022/06/01 01:10:30;;;;;;;3.97;3.63;;;14.20;99.90;;;;;;6078365;23;20449;-82
2022/06/01 01:13:01;;;;;;;4.47;4.07;;;14.10;99.90;;;;;;6094408;23;20443;-81
2022/06/01 01:15:32;;;;;;;4.40;4.10;;;13.90;99.90;;;;;;6085643;23;20450;-81
2022/06/01 01:18:00;;;;;;;6.45;4.50;;;13.70;99.90;;;;;;6080582;23;20604;-81
2022/06/01 01:20:31;;;;;;;6.20;4.50;;;13.60;99.90;;;;;;6078474;23;20551;-82
2022/06/01 01:23:07;;;;;;;5.22;4.50;;;13.50;99.90;;;;;;6086447;23;20492;-81
2022/06/01 01:25:39;;;;;;;5.50;4.78;;;13.40;99.90;;;;;;6091339;23;20725;-82
2022/06/01 01:28:08;;;;;;;4.97;4.55;;;13.40;99.90;;;;;;6075177;23;20349;-81
2022/06/01 01:30:48;;;;;;;6.25;4.32;;;13.40;99.90;;;;;;6084449;23;20189;-82
2022/06/01 01:33:17;;;;;;;4.80;4.40;;;13.30;99.90;;;;;;6075320;23;20677;-81
2022/06/01 01:35:48;;;;;;;5.18;4.50;;;13.30;99.90;;;;;;6080032;23;20227;-81
2022/06/01 01:38:22;;;;;;;5.07;4.20;;;13.30;99.90;;;;;;6076750;23;20657;-81
2022/06/01 01:41:04;;;;;;;4.75;4.10;;;13.30;99.90;;;;;;6085495;23;20441;-81
2022/06/01 01:43:33;;;;;;;4.43;4.10;;;13.30;99.90;;;;;;6085915;23;20268;-82
2022/06/01 01:46:01;;;;;;;5.10;4.70;;;13.20;99.90;;;;;;6081886;23;20188;-81
2022/06/01 01:48:30;;;;;;;4.68;4.28;;;13.20;99.90;;;;;;6082745;23;20666;-81
2022/06/01 01:50:57;;;;;;;4.93;4.50;;;13.20;99.90;;;;;;6076686;23;20200;-82
2022/06/01 01:53:24;;;;;;;4.70;4.30;;;13.20;99.90;;;;;;6076659;23;20188;-83
2022/06/01 01:56:02;;;;;;;4.93;4.28;;;13.10;99.90;;;;;;6083909;23;20675;-81
2022/06/01 01:58:43;;;;;;;4.75;4.35;;;13.10;99.90;;;;;;6075055;23;20775;-82
2022/06/01 02:01:16;;;;;;;5.15;4.65;;;13.00;99.90;;;;;;6081323;23;20689;-82
2022/06/01 02:03:47;;;;;;;5.90;5.40;;;13.00;99.90;;;;;;6072109;23;20192;-82
2022/06/01 02:06:21;;;;;;;5.70;5.20;;;13.00;99.90;;;;;;6087932;23;20724;-81
2022/06/01 02:08:53;;;;;;;7.63;5.80;;;12.90;99.90;;;;;;6065378;23;20220;-82
2022/06/01 02:14:17;;;;;;;6.43;5.55;;;12.90;99.90;;;;;;6083076;23;20188;-81
2022/06/01 02:16:48;;;;;;;5.38;4.97;;;12.80;99.90;;;;;;6080900;23;20212;-81
2022/06/01 02:19:18;;;;;;;6.13;5.57;;;12.80;99.90;;;;;;6086533;23;20606;-81
2022/06/01 02:21:45;;;;;;;6.70;5.75;;;12.70;99.90;;;;;;6081187;23;20224;-82
2022/06/01 02:24:12;;;;;;;6.32;5.88;;;12.70;99.90;;;;;;6084564;23;20202;-81
2022/06/01 02:26:40;;;;;;;5.72;5.32;;;12.70;99.90;;;;;;6075372;23;20651;-82
2022/06/01 02:29:14;;;;;;;6.32;5.72;;;12.60;99.90;;;;;;6081370;23;20212;-81
2022/06/01 02:31:43;;;;;;;6.43;5.82;;;12.60;99.90;;;;;;6071211;23;20206;-81
2022/06/01 02:34:12;;;;;;;5.85;5.35;;;12.50;99.90;;;;;;6079870;23;20211;-82
2022/06/01 02:36:42;;;;;;;6.00;5.53;;;12.40;99.90;;;;;;6082847;23;20246;-81
2022/06/01 02:39:11;;;;;;;7.47;6.60;;;12.30;99.90;;;;;;6076873;23;20578;-81
2022/06/01 02:44:24;;;;;;;6.43;5.95;;;12.10;99.90;;;;;;6099620;23;20196;-81
2022/06/01 02:46:51;;;;;;;6.70;6.20;;;12.00;99.90;;;;;;6076461;23;20738;-81
2022/06/01 02:49:18;;;;;;;6.35;5.90;;;11.90;99.90;;;;;;6081073;23;20255;-81
2022/06/01 02:51:46;;;;;;;6.28;5.60;;;11.80;99.90;;;;;;6076135;23;20283;-81
2022/06/01 02:54:13;;;;;;;6.53;5.93;;;11.80;99.90;;;;;;6082245;23;20200;-81
2022/06/01 02:56:40;;;;;;;6.15;5.63;;;11.70;99.90;;;;;;6077561;23;20283;-82
2022/06/01 02:59:08;;;;;;;7.57;5.97;;;11.70;99.90;;;;;;6079505;23;20197;-81
2022/06/01 03:01:36;;;;;;;6.60;6.10;;;11.70;99.90;;;;;;6073576;23;20192;-81
2022/06/01 03:04:05;;;;;;;6.00;5.50;;;11.80;99.90;;;;;;6079519;23;20266;-82
2022/06/01 03:06:33;;;;;;;6.63;6.03;;;11.70;99.90;;;;;;6087526;23;20740;-81
2022/06/01 03:09:00;;;;;;;5.97;5.45;;;11.70;99.90;;;;;;6086893;23;20227;-83
2022/06/01 03:11:27;;;;;;;6.55;5.95;;;11.70;99.90;;;;;;6088663;23;20639;-82
2022/06/01 03:13:54;;;;;;;7.50;6.80;;;11.60;99.90;;;;;;6076651;23;21451;-82
2022/06/01 03:16:21;;;;;;;6.93;6.32;;;11.60;99.90;;;;;;6082177;23;20725;-83
2022/06/01 03:18:49;;;;;;;7.95;5.90;;;11.60;99.90;;;;;;6085463;23;20204;-82
2022/06/01 03:21:16;;;;;;;7.80;7.10;;;11.70;99.90;;;;;;6077806;23;20212;-83
2022/06/01 03:23:43;;;;;;;7.95;7.35;;;11.70;99.90;;;;;;6084294;23;20242;-82
2022/06/01 03:26:10;;;;;;;8.13;7.45;;;11.70;99.90;;;;;;6083706;23;20611;-82
2022/06/01 03:28:38;;;;;;;7.40;6.60;;;11.70;99.90;;;;;;6081733;23;20373;-83
2022/06/01 03:31:06;;;;;;;7.45;6.80;;;11.70;99.90;;;;;;6087013;23;20266;-82
2022/06/01 03:33:32;;;;;;;7.75;6.80;;;11.70;99.90;;;;;;6076768;23;20212;-82
2022/06/01 03:36:01;;;;;;;8.75;7.95;;;11.80;99.90;;;;;;6075676;23;20176;-83
2022/06/01 03:38:28;;;;;;;10.88;9.82;;;11.80;99.90;;;;;;6081095;23;20194;-82
2022/06/01 03:40:55;;;;;;;13.23;10.65;;;11.80;99.90;;;;;;6086875;23;20188;-82
2022/06/01 03:43:22;;;;;;;10.27;9.15;;;11.80;99.90;;;;;;6079343;23;20279;-82
2022/06/01 03:45:59;;;;;;;10.20;9.27;;;11.70;99.90;;;;;;6078401;23;20193;-82
2022/06/01 03:48:29;;;;;;;9.93;8.80;;;11.80;99.90;;;;;;6072845;23;20566;-83
2022/06/01 03:50:56;;;;;;;9.60;8.70;;;11.70;99.90;;;;;;6084408;23;20188;-82
2022/06/01 03:53:25;;;;;;;9.07;8.30;;;11.70;99.90;;;;;;6085447;23;20189;-82
2022/06/01 03:55:53;;;;;;;9.43;8.55;;;11.70;99.90;;;;;;6083016;23;20241;-83
2022/06/01 03:58:22;;;;;;;9.50;8.40;;;11.80;99.90;;;;;;6048048;23;20686;-82
2022/06/01 04:00:50;;;;;;;8.93;8.13;;;11.80;99.90;;;;;;6084347;23;20210;-82
2022/06/01 04:03:18;;;;;;;9.75;8.50;;;11.80;99.90;;;;;;6085863;23;20223;-82
2022/06/01 04:05:45;;;;;;;9.32;8.43;;;11.80;99.90;;;;;;6079451;23;20517;-82
2022/06/01 04:08:12;;;;;;;9.60;8.60;;;11.80;99.90;;;;;;6083613;23;20218;-83
2022/06/01 04:10:43;;;;;;;8.07;7.40;;;11.80;99.90;;;;;;6076771;23;20272;-81
2022/06/01 04:13:10;;;;;;;8.18;7.53;;;11.80;99.90;;;;;;6079592;23;20191;-83
2022/06/01 04:15:37;;;;;;;7.40;6.70;;;11.80;99.90;;;;;;6092224;23;20192;-82
2022/06/01 04:18:04;;;;;;;8.88;7.97;;;11.90;99.90;;;;;;6087548;23;20259;-85
2022/06/01 04:20:31;;;;;;;8.18;7.47;;;11.90;99.90;;;;;;6066409;23;20274;-82
2022/06/01 04:23:00;;;;;;;8.25;7.50;;;12.00;99.90;;;;;;6087448;23;20191;-82
2022/06/01 04:25:28;;;;;;;11.85;10.73;;;12.00;99.90;;;;;;6078740;23;20196;-81
2022/06/01 04:27:56;;;;;;;11.77;10.65;;;12.00;99.90;;;;;;6091112;23;20269;-83
2022/06/01 04:30:23;;;;;;;11.50;10.32;;;12.10;99.90;;;;;;6088789;23;20587;-83
2022/06/01 04:32:53;;;;;;;10.95;9.98;;;12.10;99.90;;;;;;6080180;23;20195;-82
2022/06/01 04:35:22;;;;;;;8.60;7.90;;;12.10;99.90;;;;;;6087747;23;20279;-82
2022/06/01 04:37:49;;;;;;;8.23;7.45;;;12.10;99.90;;;;;;6084725;23;20303;-83
2022/06/01 04:40:18;;;;;;;7.82;7.13;;;12.10;99.90;;;;;;6099622;23;20196;-81
2022/06/01 04:42:47;;;;;;;7.65;6.47;;;12.10;99.90;;;;;;6094159;23;20194;-82
2022/06/01 04:45:17;;;;;;;6.82;6.28;;;12.20;99.90;;;;;;6108342;23;20227;-79
2022/06/01 04:47:45;;;;;;;6.22;5.72;;;12.20;99.90;;;;;;6103269;23;20235;-81
2022/06/01 04:50:12;;;;;;;6.70;6.07;;;12.20;99.90;;;;;;6099854;23;20196;-81
2022/06/01 04:52:39;;;;;;;6.93;6.28;;;12.30;99.90;;;;;;6118576;23;20189;-81
2022/06/01 04:55:08;;;;;;;7.45;6.82;;;12.30;99.90;;;;;;6102267;23;20215;-81
2022/06/01 04:57:36;;;;;;;7.50;6.90;;;12.40;99.90;;;;;;6092011;23;20204;-83
2022/06/01 05:00:06;;;;;;;6.93;6.28;;;12.40;99.90;;;;;;6095180;23;20238;-81
2022/06/01 05:02:35;;;;;;;7.07;6.38;;;12.40;99.90;;;;;;6092378;23;20183;-80
2022/06/01 05:05:02;;;;;;;6.65;6.15;;;12.50;99.90;;;;;;6085328;23;20187;-81
2022/06/01 05:07:29;;;;;;;6.53;5.93;;;12.60;99.90;;;;;;6096532;23;20231;-81
2022/06/01 05:09:56;;;;;;;7.38;6.75;;;12.70;99.90;;;;;;6089345;23;20211;-82
2022/06/01 05:12:23;;;;;;;7.75;7.05;;;12.70;99.90;;;;;;6098690;23;20180;-81
2022/06/01 05:14:50;;;;;;;7.28;6.57;;;12.80;99.90;;;;;;6089353;23;20218;-82
2022/06/01 05:17:17;;;;;;;7.65;6.85;;;12.90;99.90;;;;;;6093080;23;20298;-81
2022/06/01 05:19:45;;;;;;;7.35;6.38;;;12.90;99.90;;;;;;6104589;23;20190;-81
2022/06/01 05:22:12;;;;;;;6.47;5.93;;;12.90;99.90;;;;;;6088768;23;20990;-80
2022/06/01 05:24:39;;;;;;;7.25;6.65;;;13.00;99.90;;;;;;6073601;23;20639;-80
2022/06/01 05:27:07;;;;;;;7.00;6.30;;;13.10;99.90;;;;;;6094210;23;20274;-79
2022/06/01 05:29:34;;;;;;;7.10;6.43;;;13.20;99.90;;;;;;6098198;23;20225;-80
2022/06/01 05:32:01;;;;;;;7.32;6.57;;;13.40;99.90;;;;;;6095046;23;20179;-80
2022/06/01 05:34:28;;;;;;;6.80;6.20;;;13.40;99.90;;;;;;6104147;23;20250;-80
2022/06/01 05:36:57;;;;;;;7.27;6.57;;;13.60;99.90;;;;;;6102319;23;20561;-81
2022/06/01 05:39:24;;;;;;;7.53;6.70;;;13.70;99.90;;;;;;6098460;23;20445;-81
2022/06/01 05:41:51;;;;;;;6.67;6.17;;;13.70;99.90;;;;;;6104139;23;20191;-82
2022/06/01 05:44:18;;;;;;;6.30;5.80;;;13.80;99.90;;;;;;6114828;23;20433;-81
2022/06/01 05:46:45;;;;;;;7.17;6.00;;;14.00;99.90;;;;;;6106208;23;21016;-80
2022/06/01 05:49:13;;;;;;;6.20;5.70;;;14.10;99.90;;;;;;6104045;23;20549;-80
2022/06/01 05:51:40;;;;;;;6.93;6.03;;;14.30;99.90;;;;;;6102529;23;20454;-80
2022/06/01 05:54:09;;;;;;;6.20;5.67;;;14.30;99.90;;;;;;6097518;23;20437;-80
2022/06/01 05:56:35;;;;;;;6.67;6.00;;;14.40;99.90;;;;;;6101534;23;20468;-80
2022/06/01 05:59:02;;;;;;;6.63;5.13;;;14.50;99.90;;;;;;6098986;23;20449;-80
2022/06/01 06:01:29;;;;;;;5.33;4.93;;;14.60;99.90;;;;;;6097450;23;20513;-80
2022/06/01 06:03:56;;;;;;;5.47;4.90;;;14.70;99.90;;;;;;6079373;23;20436;-81
2022/06/01 06:06:24;;;;;;;5.17;4.77;;;14.80;99.90;;;;;;6098420;23;20527;-80
2022/06/01 06:08:53;;;;;;;5.23;4.70;;;15.00;99.90;;;;;;6103129;23;20462;-81
2022/06/01 06:11:23;;;;;;;4.63;4.10;;;15.10;99.90;;;;;;6095136;23;20491;-81
2022/06/01 06:13:50;;;;;;;4.73;4.10;;;15.30;99.90;;;;;;6089467;23;20462;-81
2022/06/01 06:16:18;;;;;;;4.37;4.07;;;15.40;99.90;;;;;;6100291;23;20490;-80
2022/06/01 06:18:45;;;;;;;4.97;4.57;;;15.60;99.90;;;;;;6098749;23;20445;-80
2022/06/01 06:21:12;;;;;;;5.40;4.90;;;15.70;99.90;;;;;;6101135;23;20470;-80
2022/06/01 06:23:40;;;;;;;5.17;4.77;;;15.80;99.90;;;;;;6094499;23;20425;-80
2022/06/01 06:26:07;;;;;;;4.87;4.47;;;15.90;99.90;;;;;;6094419;23;20463;-79
2022/06/01 06:28:37;;;;;;;5.53;4.70;;;16.00;99.90;;;;;;6100425;23;20875;-80
2022/06/01 06:31:04;;;;;;;6.43;4.70;;;16.10;99.90;;;;;;6098619;23;21020;-80
2022/06/01 06:33:31;;;;;;;5.03;3.90;;;16.30;99.90;;;;;;6097894;23;20970;-81
2022/06/01 06:36:00;;;;;;;4.50;4.10;;;16.40;99.90;;;;;;6096319;23;20485;-81
2022/06/01 06:38:29;;;;;;;4.50;3.93;;;16.50;99.90;;;;;;6089326;23;20442;-80
2022/06/01 06:40:57;;;;;;;7.53;4.13;;;16.60;99.90;;;;;;6107540;23;20870;-80
2022/06/01 06:43:24;;;;;;;4.40;3.90;;;16.80;99.90;;;;;;6100755;23;20432;-80
2022/06/01 06:45:56;;;;;;;4.93;4.43;;;16.90;99.90;;;;;;6094203;23;20825;-80
2022/06/01 06:48:23;;;;;;;5.60;4.37;;;17.00;99.90;;;;;;6095053;23;20447;-81
2022/06/01 06:50:51;;;;;;;4.50;3.90;;;17.10;99.90;;;;;;6097309;23;20833;-81
2022/06/01 06:53:18;;;;;;;6.67;4.17;;;17.20;99.90;;;;;;6098621;23;20460;-80
2022/06/01 06:55:45;;;;;;;4.83;3.60;;;17.30;99.90;;;;;;6103443;23;20876;-81
2022/06/01 06:58:12;;;;;;;4.33;4.03;;;17.40;99.90;;;;;;6068107;23;20782;-80
2022/06/01 07:00:39;;;;;;;4.73;4.10;;;17.60;99.90;;;;;;6097521;23;20441;-80
2022/06/01 07:03:08;;;;;;;3.80;3.33;;;17.70;99.90;;;;;;6104749;23;20525;-80
2022/06/01 07:08:20;;;;;;;3.37;2.80;;;18.00;99.90;;;;;;6097527;23;20526;-81
2022/06/01 07:10:48;;;;;;;3.67;3.37;;;18.30;99.90;;;;;;6095242;23;20458;-81
2022/06/01 07:13:15;;;;;;;4.47;3.53;;;18.50;99.90;;;;;;6109277;23;20998;-80
2022/06/01 07:15:42;;;;;;;3.20;2.90;;;18.70;99.90;;;;;;6112117;23;20538;-80
2022/06/01 07:18:10;;;;;;;3.53;3.03;;;19.00;99.90;;;;;;6109364;23;20528;-81
2022/06/01 07:20:37;;;;;;;4.13;3.20;;;19.20;99.90;;;;;;6104197;23;20438;-81
2022/06/01 07:23:04;;;;;;;5.13;3.00;;;19.40;99.90;;;;;;6105173;23;20860;-81
2022/06/01 07:25:31;;;;;;;3.30;3.00;;;19.60;99.90;;;;;;6103540;23;20434;-81
2022/06/01 07:27:58;;;;;;;3.97;3.07;;;20.00;99.90;;;;;;6100001;23;20449;-81
2022/06/01 07:30:26;;;;;;;4.90;3.63;;;20.40;99.90;;;;;;6101824;23;20458;-81
2022/06/01 07:32:53;;;;;;;3.43;3.13;;;20.60;99.90;;;;;;6099267;23;20506;-80
2022/06/01 07:35:21;;;;;;;5.17;3.03;;;20.90;99.90;;;;;;6101851;23;20468;-81
2022/06/01 07:43:20;;;;;;;4.53;3.30;;;22.50;99.90;;;;;;6055321;23;20760;-81
2022/06/01 07:45:49;;;;;;;3.10;2.60;;;22.80;99.80;;;;;;6056379;23;20494;-81
2022/06/01 07:48:17;;;;;;;5.93;2.30;;;23.10;98.00;;;;;;6055706;23;20439;-81
2022/06/01 07:50:48;;;;;;;2.40;2.07;;;23.60;95.60;;;;;;6056036;23;20505;-81
2022/06/01 07:53:16;;;;;;;3.03;2.03;;;23.60;92.70;;;;;;6055507;23;20455;-81
2022/06/01 07:55:43;;;;;;;2.93;2.10;;;23.80;92.40;;;;;;6056851;23;20784;-81
2022/06/01 07:58:10;;;;;;;2.43;2.23;;;23.70;92.10;;;;;;6057685;23;20447;-81
2022/06/01 08:00:38;;;;;;;4.60;2.00;;;23.90;91.40;;;;;;6053283;23;20485;-81
2022/06/01 08:03:11;;;;;;;3.57;2.10;;;23.80;91.30;;;;;;6054451;23;20936;-81
2022/06/01 08:05:38;;;;;;;3.23;2.33;;;23.90;91.10;;;;;;6055029;23;20490;-81
2022/06/01 08:08:07;;;;;;;3.30;2.23;;;24.40;89.70;;;;;;6057398;23;20455;-81
2022/06/01 08:10:35;;;;;;;2.27;2.07;;;24.70;88.70;;;;;;6051997;23;20459;-81
2022/06/01 08:13:10;;;;;;;2.70;1.93;;;25.10;85.70;;;;;;6055001;23;20522;-81
2022/06/01 08:15:41;;;;;;;2.40;2.20;;;25.70;87.00;;;;;;6056778;23;20470;-81
2022/06/01 08:18:09;;;;;;;3.10;2.00;;;26.50;79.80;;;;;;6054478;23;20969;-81
2022/06/01 08:20:36;;;;;;;2.33;2.13;;;27.10;79.10;;;;;;6054841;23;20435;-82
2022/06/01 08:23:07;;;;;;;2.07;1.97;;;27.20;74.30;;;;;;6053761;23;20775;-81
2022/06/01 08:25:35;;;;;;;3.30;3.00;;;27.00;71.90;;;;;;6059046;23;20589;-81
2022/06/01 08:28:03;;;;;;;3.60;2.50;;;26.80;77.40;;;;;;6056400;23;20440;-81
2022/06/01 08:30:31;;;;;;;2.47;2.27;;;27.00;78.50;;;;;;6054374;23;20494;-81
2022/06/01 08:32:59;;;;;;;3.77;2.53;;;27.60;72.50;;;;;;6056795;23;20899;-81
2022/06/01 08:35:28;;;;;;;2.03;1.93;;;27.70;71.80;;;;;;6056575;23;20518;-81
2022/06/01 08:37:56;;;;;;;2.90;2.13;;;27.30;69.90;;;;;;6057837;23;20861;-82
2022/06/01 08:40:27;;;;;;;2.53;2.33;;;27.20;72.70;;;;;;6056007;23;20843;-81
2022/06/01 08:42:58;;;;;;;2.57;2.43;;;27.50;74.00;;;;;;6057122;23;21002;-81
2022/06/01 08:45:27;;;;;;;5.63;2.37;;;27.90;73.50;;;;;;6056346;23;20486;-82
2022/06/01 08:47:56;;;;;;;3.20;2.30;;;28.00;69.70;;;;;;6067403;23;20518;-80
2022/06/01 08:50:28;;;;;;;3.20;2.23;;;27.50;67.50;;;;;;6059288;23;20443;-82
2022/06/01 08:52:59;;;;;;;4.00;2.27;;;27.00;67.80;;;;;;6057176;23;20450;-81
2022/06/01 08:55:33;;;;;;;2.60;2.40;;;26.20;70.20;;;;;;6058150;23;20482;-81
2022/06/01 08:58:07;;;;;;;3.40;2.70;;;25.40;71.80;;;;;;6056645;23;20981;-81
2022/06/01 09:00:39;;;;;;;4.93;2.93;;;24.60;74.20;;;;;;6055125;23;20453;-81
2022/06/01 09:03:14;;;;;;;5.87;3.07;;;24.10;76.40;;;;;;6054358;23;20963;-81
2022/06/01 09:05:45;;;;;;;2.50;2.30;;;23.80;76.90;;;;;;6057354;23;20561;-81
2022/06/01 09:08:22;;;;;;;2.50;2.30;;;23.50;76.50;;;;;;6055206;23;20952;-81
2022/06/01 09:11:01;;;;;;;2.40;2.20;;;23.40;77.30;;;;;;6054886;23;20676;-81
2022/06/01 09:13:35;;;;;;;4.37;2.33;;;23.70;76.40;;;;;;6056809;23;20506;-81
2022/06/01 09:16:06;;;;;;;3.80;2.30;;;24.50;75.30;;;;;;6057187;23;20463;-81
2022/06/01 09:18:39;;;;;;;2.40;2.07;;;25.40;72.30;;;;;;6053084;23;20454;-81
2022/06/01 09:23:51;;;;;;;1.83;1.73;;;26.90;66.70;;;;;;6054485;23;20780;-83
2022/06/01 09:26:30;;;;;;;3.50;2.10;;;27.60;65.90;;;;;;6056336;23;20459;-83
2022/06/01 09:28:59;;;;;;;2.60;2.13;;;28.50;64.40;;;;;;6056450;23;20451;-83
2022/06/01 09:31:33;;;;;;;4.07;2.13;;;28.00;62.50;;;;;;6057321;23;20459;-83
2022/06/01 09:34:21;;;;;;;3.97;2.13;;;28.40;63.50;;;;;;6060208;23;20443;-84
2022/06/01 09:36:53;;;;;;;2.03;1.83;;;28.30;60.50;;;;;;6052915;23;20455;-84
2022/06/01 09:39:20;;;;;;;2.37;1.77;;;28.60;60.80;;;;;;6056411;23;20867;-84
2022/06/01 09:41:49;;;;;;;2.73;1.60;;;29.10;61.20;;;;;;6055903;23;20467;-84
2022/06/01 09:44:18;;;;;;;2.73;1.77;;;29.60;59.40;;;;;;6051478;23;20449;-85
2022/06/01 09:46:54;;;;;;;2.10;1.90;;;30.20;57.20;;;;;;6056553;23;20899;-84
2022/06/01 09:49:25;;;;;;;2.87;2.00;;;30.50;57.00;;;;;;6056885;23;20442;-84
2022/06/01 09:51:56;;;;;;;1.80;1.70;;;30.50;57.30;;;;;;6058791;23;20475;-83
2022/06/01 09:54:29;;;;;;;2.63;1.90;;;29.70;56.90;;;;;;6058904;23;20447;-84
2022/06/01 09:56:57;;;;;;;2.23;2.00;;;29.00;56.80;;;;;;6056116;23;20446;-84
2022/06/01 10:08:04;;;;;;;2.57;1.90;;;28.30;57.70;;;;;;6060888;23;20441;-83
2022/06/01 10:10:31;;;;;;;1.80;1.70;;;28.30;59.20;;;;;;6053268;23;20570;-84
2022/06/01 10:13:00;;;;;;;2.67;1.80;;;28.50;58.10;;;;;;6057291;23;20790;-84
2022/06/01 10:15:35;;;;;;;2.40;1.90;;;29.10;57.80;;;;;;6052497;23;20467;-84
2022/06/01 10:18:07;;;;;;;2.50;1.90;;;29.20;56.90;;;;;;6053853;23;20783;-83
2022/06/01 10:20:39;;;;;;;2.07;1.80;;;28.90;57.40;;;;;;6067971;23;20614;-83
2022/06/01 10:23:10;;;;;;;2.40;1.60;;;29.00;56.30;;;;;;6056265;23;20526;-84
2022/06/01 10:25:42;;;;;;;1.60;1.50;;;28.60;51.60;;;;;;6059609;23;20990;-84
2022/06/01 10:28:17;;;;;;;1.50;1.40;;;27.60;53.00;;;;;;6048851;23;20451;-84
2022/06/01 10:30:49;;;;;;;1.97;1.47;;;27.20;54.00;;;;;;6055960;23;20479;-84
2022/06/01 10:33:22;;;;;;;1.77;1.53;;;26.70;54.10;;;;;;6064945;23;20439;-84
2022/06/01 10:35:53;;;;;;;2.13;1.47;;;26.40;54.60;;;;;;6054369;23;20455;-83
2022/06/01 10:38:24;;;;;;;2.00;1.53;;;26.60;55.30;;;;;;6070694;23;20464;-83
2022/06/01 10:40:59;;;;;;;4.57;1.60;;;27.10;54.90;;;;;;6058114;23;20498;-83
2022/06/01 10:43:40;;;;;;;1.77;1.40;;;26.90;53.30;;;;;;6059561;23;21012;-82
2022/06/01 10:46:20;;;;;;;1.40;1.27;;;26.50;53.00;;;;;;6033038;23;20474;-83
2022/06/01 10:48:55;;;;;;;1.87;1.50;;;26.40;52.30;;;;;;6062986;23;20564;-83
2022/06/01 10:51:28;;;;;;;2.03;1.60;;;26.30;52.00;;;;;;6060051;23;20966;-83
2022/06/01 10:54:05;;;;;;;1.60;1.30;;;25.80;51.50;;;;;;6057631;23;20451;-83
2022/06/01 10:56:33;;;;;;;2.60;1.57;;;25.70;51.20;;;;;;6056292;23;20443;-83
2022/06/01 10:59:04;;;;;;;1.60;1.50;;;25.60;52.40;;;;;;6058168;23;20526;-84
2022/06/01 11:01:46;;;;;;;2.43;1.80;;;25.60;52.10;;;;;;6066084;23;20444;-83
2022/06/01 11:04:58;;;;;;;1.53;1.37;;;25.40;54.20;;;;;;6056756;23;20931;-83
2022/06/01 11:07:49;;;;;;;1.30;1.20;;;25.60;53.00;;;;;;6061477;23;20548;-83
2022/06/01 11:10:25;;;;;;;2.47;1.33;;;26.20;51.30;;;;;;6064155;23;20456;-82
2022/06/01 11:13:06;;;;;;;1.53;1.43;;;26.20;51.30;;;;;;6062895;23;20439;-84
2022/06/01 11:15:45;;;;;;;1.97;1.30;;;25.60;52.70;;;;;;6058040;23;20467;-84
2022/06/01 11:18:30;;;;;;;1.73;1.50;;;25.40;52.30;;;;;;6063156;23;21088;-84
2022/06/01 11:21:08;;;;;;;2.33;1.40;;;26.00;51.80;;;;;;6057292;23;20466;-83
2022/06/01 11:23:51;;;;;;;1.43;1.33;;;26.70;51.10;;;;;;6061289;23;20799;-83
2022/06/01 11:26:32;;;;;;;1.70;1.20;;;26.70;50.70;;;;;;6053328;23;20490;-83
2022/06/01 11:29:15;;;;;;;1.27;1.17;;;26.90;50.00;;;;;;6055756;23;21132;-79
2022/06/01 11:31:46;;;;;;;2.00;1.30;;;26.80;48.10;;;;;;6052329;23;20455;-84
2022/06/01 11:34:19;;;;;;;1.77;1.67;;;26.40;48.40;;;;;;6067274;23;20499;-82
2022/06/01 11:36:51;;;;;;;2.17;1.20;;;26.20;49.40;;;;;;6053430;23;20856;-84
2022/06/01 11:39:27;;;;;;;1.67;1.50;;;26.00;48.80;;;;;;6057248;23;20451;-83
2022/06/01 11:42:01;;;;;;;2.20;1.30;;;25.90;49.50;;;;;;6052651;23;21203;-82
2022/06/01 11:44:33;;;;;;;1.83;1.60;;;25.90;50.80;;;;;;6053101;23;20452;-83
2022/06/01 11:47:04;;;;;;;1.40;1.30;;;26.30;51.60;;;;;;6052354;23;20525;-83
2022/06/01 11:49:37;;;;;;;3.67;1.90;;;26.60;50.00;;;;;;6051182;23;20749;-83
2022/06/01 11:52:32;;;;;;;2.87;1.40;;;26.40;51.60;;;;;;6057698;23;20561;-82
2022/06/01 11:55:20;;;;;;;1.53;1.30;;;26.60;51.30;;;;;;6055636;23;20964;-83
2022/06/01 11:57:53;;;;;;;3.17;1.80;;;26.70;51.30;;;;;;6050948;23;20439;-84
2022/06/01 12:00:31;;;;;;;1.40;1.30;;;27.30;51.10;;;;;;6050617;23;21464;-84
2022/06/01 12:03:02;;;;;;;2.50;1.50;;;28.10;51.30;;;;;;6055244;23;20539;-83
2022/06/01 12:05:40;;;;;;;2.03;1.53;;;28.70;48.80;;;;;;6055111;23;21053;-84
2022/06/01 12:08:16;;;;;;;1.87;1.40;;;28.70;48.80;;;;;;6050818;23;20855;-82
2022/06/01 12:10:55;;;;;;;2.90;1.50;;;28.20;47.30;;;;;;6051341;23;20493;-83
2022/06/01 12:13:27;;;;;;;1.70;1.30;;;27.30;49.10;;;;;;6059527;23;20475;-80
2022/06/01 12:16:21;;;;;;;1.97;1.77;;;27.00;50.60;;;;;;6056784;23;20462;-84
2022/06/01 12:19:01;;;;;;;2.47;1.60;;;26.80;51.00;;;;;;6055691;23;20466;-84
2022/06/01 12:21:32;;;;;;;1.70;1.60;;;27.00;51.70;;;;;;6058014;23;20511;-84
2022/06/01 12:30:05;;;;;;;1.50;1.40;;;27.30;50.50;;;;;;6048444;23;20451;-84
2022/06/01 12:33:20;;;;;;;3.47;1.50;;;27.60;51.30;;;;;;6063010;23;20466;-83
2022/06/01 12:35:53;;;;;;;1.50;1.40;;;27.60;52.20;;;;;;6057400;23;20488;-83
2022/06/01 12:38:41;;;;;;;3.73;1.60;;;27.20;51.20;;;;;;6019960;23;20542;-84
2022/06/01 12:41:20;;;;;;;1.60;1.50;;;26.40;52.40;;;;;;6046257;23;20475;-84
2022/06/01 12:43:51;;;;;;;1.60;1.50;;;26.10;53.30;;;;;;6058838;23;20455;-84
2022/06/01 12:46:25;;;;;;;2.20;1.57;;;26.10;53.80;;;;;;6058855;23;20450;-84
2022/06/01 12:48:52;;;;;;;2.93;1.60;;;26.20;53.90;;;;;;6063654;23;20442;-83
2022/06/01 12:51:20;;;;;;;3.00;1.53;;;26.40;53.20;;;;;;6060138;23;20459;-78
2022/06/01 12:53:51;;;;;;;3.00;1.80;;;26.60;52.70;;;;;;6051441;23;21014;-79
2022/06/01 12:56:20;;;;;;;1.90;1.63;;;26.70;53.00;;;;;;6062540;23;20428;-79
2022/06/01 12:58:50;;;;;;;2.00;1.90;;;27.00;52.40;;;;;;6053643;23;20515;-78
2022/06/01 13:01:19;;;;;;;3.17;1.60;;;27.40;52.40;;;;;;6055947;23;20483;-76
2022/06/01 13:03:49;;;;;;;2.17;1.53;;;27.00;52.70;;;;;;6051270;23;20451;-78
2022/06/01 13:06:23;;;;;;;2.03;1.83;;;27.00;52.60;;;;;;6058490;23;20476;-83
2022/06/01 13:08:57;;;;;;;1.90;1.77;;;27.10;53.10;;;;;;6056835;23;20489;-82
2022/06/01 13:11:27;;;;;;;2.00;1.80;;;26.90;52.70;;;;;;6046517;23;20465;-82
2022/06/01 13:13:57;;;;;;;2.60;2.03;;;27.10;53.00;;;;;;6037947;23;22149;-82
2022/06/01 13:16:34;;;;;;;1.57;1.40;;;26.90;52.90;;;;;;6050543;23;20432;-83
2022/06/01 13:19:15;;;;;;;2.43;1.70;;;26.70;54.00;;;;;;6051648;23;20943;-83
2022/06/01 13:21:50;;;;;;;2.20;2.00;;;27.10;52.90;;;;;;6045627;23;20448;-83
2022/06/01 13:24:17;;;;;;;1.80;1.70;;;26.70;53.50;;;;;;6047719;23;20462;-82
2022/06/01 13:26:46;;;;;;;2.40;1.70;;;26.30;53.50;;;;;;6053429;23;20447;-80
2022/06/01 13:29:18;;;;;;;2.23;1.60;;;26.30;54.40;;;;;;6055934;23;20447;-80
2022/06/01 13:31:49;;;;;;;2.50;1.57;;;27.10;54.40;;;;;;6051141;23;20467;-81
2022/06/01 13:34:22;;;;;;;2.70;1.83;;;29.10;52.50;;;;;;6057188;23;20463;-80